Time;durP1;ratioP1;P1;durP2;ratioP2;P2;SDS_P1;SDS_P2;PMS_P1;PMS_P2;Temp;Humidity;BMP_temperature;BMP_pressure;BME280_temperature;BME280_humidity;BME280_pressure;Samples;Min_cycle;Max_cycle;Signal;HPM_P1;HPM_P2
2022/11/05 02:43:56;;;;;;;32.50;18.70;;;;;;;10.31;99.09;98203.53;1785113;79;28740;-44
2022/11/05 02:46:57;;;;;;;30.90;18.67;;;;;;;10.42;97.98;98205.88;1761812;80;20987;-43
2022/11/05 02:49:49;;;;;;;28.73;18.40;;;;;;;10.40;98.16;98203.83;1761924;81;21007;-42
2022/11/05 02:52:32;;;;;;;33.88;18.30;;;;;;;10.38;98.25;98204.77;1761839;81;21038;-44
2022/11/05 02:55:24;;;;;;;32.30;19.40;;;;;;;10.35;98.56;98191.02;1761858;81;20987;-42
2022/11/05 02:57:49;;;;;;;35.40;18.98;;;;;;;10.34;98.49;98195.92;1761725;80;20986;-44
2022/11/05 03:00:48;;;;;;;33.20;19.12;;;;;;;10.32;98.46;98198.66;1761842;81;21030;-45
2022/11/05 03:03:31;;;;;;;30.65;18.20;;;;;;;10.31;98.54;98201.39;1761850;80;20987;-44
2022/11/05 03:06:22;;;;;;;32.55;19.37;;;;;;;10.33;98.47;98201.66;1761816;81;20971;-47
2022/11/05 03:09:21;;;;;;;38.35;18.55;;;;;;;10.33;98.39;98212.63;1761818;80;20995;-44
2022/11/05 03:12:07;;;;;;;30.35;17.10;;;;;;;10.30;98.47;98214.98;1761837;81;20991;-44
2022/11/05 03:15:04;;;;;;;32.70;18.60;;;;;;;10.26;98.84;98225.34;1761700;80;20999;-44
2022/11/05 03:18:11;;;;;;;32.95;18.55;;;;;;;10.23;98.99;98243.95;1762003;81;20991;-42
2022/11/05 03:20:54;;;;;;;31.07;18.52;;;;;;;10.23;99.33;98245.27;1741815;82;21009;-42
2022/11/05 03:23:36;;;;;;;29.42;17.52;;;;;;;10.26;99.02;98264.77;1732743;82;20974;-43
2022/11/05 03:26:24;;;;;;;34.58;17.75;;;;;;;10.28;99.02;98272.54;1741801;82;21499;-45
2022/11/05 03:29:07;;;;;;;28.92;17.15;;;;;;;10.27;98.83;98263.80;1742003;82;21006;-45
2022/11/05 03:31:36;;;;;;;36.10;18.92;;;;;;;10.29;99.21;98265.00;1741878;82;21491;-42
2022/11/05 03:34:04;;;;;;;29.55;17.23;;;;;;;10.33;98.94;98266.49;1741931;82;21005;-45
2022/11/05 03:36:38;;;;;;;30.43;16.73;;;;;;;10.31;99.77;98264.45;1741805;82;21061;-43
2022/11/05 03:39:08;;;;;;;30.12;17.30;;;;;;;10.32;99.28;98269.61;1741489;82;21049;-47
2022/11/05 03:41:37;;;;;;;28.27;16.97;;;;;;;10.33;98.98;98279.18;1715360;83;21022;-47
2022/11/05 03:44:05;;;;;;;28.80;16.02;;;;;;;10.31;99.80;98279.73;1732007;83;21522;-45
2022/11/05 03:46:36;;;;;;;25.25;16.37;;;;;;;10.33;99.33;98267.36;1731866;83;21042;-44
2022/11/05 03:49:05;;;;;;;29.90;16.77;;;;;;;10.34;99.46;98276.91;1731891;83;21018;-47
2022/11/05 03:52:01;;;;;;;29.18;15.32;;;;;;;10.36;99.35;98288.14;1743498;82;20986;-42
2022/11/05 03:54:27;;;;;;;28.65;16.60;;;;;;;10.42;99.08;98300.49;1753666;81;21006;-45
2022/11/05 03:57:01;;;;;;;25.35;15.88;;;;;;;10.49;98.68;98304.36;1753583;82;20998;-44
2022/11/05 03:59:29;;;;;;;21.95;15.60;;;;;;;10.51;98.63;98288.01;1753543;80;21022;-45
2022/11/05 04:01:56;;;;;;;27.75;15.35;;;;;;;10.52;98.23;98291.02;1753427;80;21535;-46
2022/11/05 04:04:22;;;;;;;28.52;14.33;;;;;;;10.53;98.18;98293.54;1753701;81;20978;-44
2022/11/05 04:14:59;;;;;;;21.27;14.13;;;;;;;10.46;98.60;98325.59;1753529;81;20966;-45
2022/11/05 04:17:25;;;;;;;22.20;13.35;;;;;;;10.45;98.38;98327.88;1753474;82;21003;-44
2022/11/05 04:25:20;;;;;;;22.90;13.08;;;;;;;10.48;98.56;98326.36;1753523;81;20963;-45
2022/11/05 04:27:47;;;;;;;20.90;13.32;;;;;;;10.47;98.28;98327.30;1753684;82;21428;-44
2022/11/05 04:30:20;;;;;;;20.37;12.20;;;;;;;10.48;98.55;98326.36;1753570;82;20995;-44
2022/11/05 04:33:07;;;;;;;21.82;12.75;;;;;;;10.48;98.44;98331.14;1753434;82;21542;-45
2022/11/05 04:35:41;;;;;;;;;;;;;;;10.49;98.37;98332.80;1756160;82;21474;-44
2022/11/05 04:38:10;;;;;;;15.95;10.13;;;;;;;10.48;98.72;98337.70;1753474;82;20436;-46
2022/11/05 04:40:37;;;;;;;24.60;11.10;;;;;;;10.52;98.31;98343.59;1753533;81;21526;-45
2022/11/05 04:43:03;;;;;;;15.38;10.48;;;;;;;10.47;98.81;98341.27;1749704;80;20992;-45
2022/11/05 04:45:35;;;;;;;18.10;10.13;;;;;;;10.50;97.84;98358.63;1748388;81;20964;-43
2022/11/05 04:48:02;;;;;;;12.80;9.53;;;;;;;10.52;98.00;98358.05;1748163;81;21003;-43
2022/11/05 04:50:29;;;;;;;17.73;10.32;;;;;;;10.51;97.75;98345.39;1748288;81;21024;-43
2022/11/05 04:52:54;;;;;;;13.25;9.55;;;;;;;10.53;97.63;98347.88;1748171;81;21475;-45
2022/11/05 04:55:20;;;;;;;12.10;9.03;;;;;;;10.47;97.77;98353.09;1748218;82;20995;-45
2022/11/05 04:57:48;;;;;;;16.25;9.63;;;;;;;10.44;97.98;98359.91;1748095;82;21008;-42
2022/11/05 05:00:15;;;;;;;12.88;8.90;;;;;;;10.44;98.57;98359.05;1748097;81;20987;-43
2022/11/05 05:02:41;;;;;;;14.03;9.30;;;;;;;10.41;98.84;98359.28;1748386;82;21047;-45
2022/11/05 05:05:07;;;;;;;18.05;9.58;;;;;;;10.40;98.67;98358.89;1748141;81;20971;-45
2022/11/05 05:07:33;;;;;;;13.78;9.10;;;;;;;10.40;98.84;98358.89;1748115;82;20995;-44
2022/11/05 05:10:00;;;;;;;13.23;8.20;;;;;;;10.38;99.06;98360.31;1748317;81;21027;-43
2022/11/05 05:12:26;;;;;;;16.05;9.58;;;;;;;10.42;98.48;98363.57;1748299;82;20999;-44
2022/11/05 05:14:52;;;;;;;22.82;9.78;;;;;;;10.43;98.59;98370.52;1748100;81;20983;-45
2022/11/05 05:17:18;;;;;;;16.62;9.58;;;;;;;10.38;99.31;98370.82;1748160;81;20991;-47
2022/11/05 05:22:28;;;;;;;15.63;10.08;;;;;;;10.41;98.97;98376.36;1748161;82;20968;-42
2022/11/05 05:24:55;;;;;;;16.10;9.93;;;;;;;10.42;98.49;98378.02;1748065;82;21043;-43
2022/11/05 05:27:23;;;;;;;15.30;9.68;;;;;;;10.44;98.92;98381.38;1748254;82;20999;-47
2022/11/05 05:29:48;;;;;;;;;;;;;;;10.44;98.91;98382.70;1750782;81;20968;-45
2022/11/05 05:32:14;;;;;;;16.07;9.25;;;;;;;10.43;98.94;98388.92;1748218;82;20113;-42
2022/11/05 05:34:40;;;;;;;16.05;9.48;;;;;;;10.38;98.91;98395.79;1748089;81;20995;-42
2022/11/05 05:37:06;;;;;;;19.25;10.10;;;;;;;10.38;99.11;98399.25;1748037;81;21031;-45
2022/11/05 05:39:31;;;;;;;16.48;9.95;;;;;;;10.36;100.00;98404.26;1748091;81;21024;-44
2022/11/05 05:41:57;;;;;;;15.18;9.90;;;;;;;10.35;100.00;98408.69;1749691;81;21024;-46
2022/11/05 05:44:23;;;;;;;18.35;9.53;;;;;;;10.37;100.00;98397.59;1761465;81;20963;-43
2022/11/05 05:46:49;;;;;;;15.18;9.85;;;;;;;10.38;99.90;98401.88;1761435;81;21034;-43
2022/11/05 05:49:14;;;;;;;20.25;11.20;;;;;;;10.38;99.60;98408.45;1761423;81;20973;-44
2022/11/05 05:51:40;;;;;;;17.73;11.25;;;;;;;10.37;99.99;98408.58;1761358;81;21516;-44
2022/11/05 05:54:07;;;;;;;18.02;10.93;;;;;;;10.38;99.89;98408.94;1761508;81;20971;-42
2022/11/05 05:56:33;;;;;;;18.57;11.47;;;;;;;10.40;100.00;98411.46;1761754;81;21492;-43
2022/11/05 05:58:58;;;;;;;18.98;10.70;;;;;;;10.41;100.00;98417.09;1761569;81;21023;-45
2022/11/05 06:01:24;;;;;;;20.60;11.43;;;;;;;10.40;100.00;98412.77;1761381;81;20991;-46
2022/11/05 06:03:50;;;;;;;16.97;11.00;;;;;;;10.41;100.00;98420.56;1761429;81;20987;-46
2022/11/05 06:06:20;;;;;;;16.02;11.55;;;;;;;10.43;100.00;98422.61;1761372;81;21036;-43
2022/11/05 06:08:46;;;;;;;17.65;11.22;;;;;;;10.42;100.00;98427.96;1761403;81;21359;-48
2022/11/05 06:11:12;;;;;;;18.98;12.00;;;;;;;10.44;100.00;98428.24;1761727;81;20995;-43
2022/11/05 06:13:38;;;;;;;18.32;12.00;;;;;;;10.47;100.00;98444.27;1761452;80;21452;-42
2022/11/05 06:16:07;;;;;;;19.90;11.90;;;;;;;10.48;100.00;98440.70;1761483;81;21022;-45
2022/11/05 06:18:34;;;;;;;19.32;11.88;;;;;;;10.51;100.00;98441.78;1761426;81;20987;-42
2022/11/05 06:21:10;;;;;;;19.82;12.90;;;;;;;10.48;100.00;98439.39;1761505;80;20999;-47
2022/11/05 06:23:38;;;;;;;17.25;12.03;;;;;;;10.53;100.00;98443.83;1760522;81;20964;-44
2022/11/05 06:26:08;;;;;;;22.95;12.28;;;;;;;10.51;100.00;98449.22;1761461;81;20980;-44
2022/11/05 06:28:34;;;;;;;18.87;12.73;;;;;;;10.55;100.00;98448.51;1761403;81;21479;-44
2022/11/05 06:31:00;;;;;;;17.73;13.00;;;;;;;10.56;100.00;98447.58;1761419;81;21534;-45
2022/11/05 06:33:27;;;;;;;21.33;13.03;;;;;;;10.59;100.00;98446.06;1761589;81;20971;-42
2022/11/05 06:35:53;;;;;;;19.05;12.93;;;;;;;10.59;100.00;98443.43;1761410;81;21039;-47
2022/11/05 06:38:21;;;;;;;19.62;13.32;;;;;;;10.56;100.00;98448.89;1761632;80;21365;-43
2022/11/05 06:40:47;;;;;;;15.23;11.15;;;;;;;10.58;100.00;98447.47;1761551;81;21003;-45
2022/11/05 06:43:12;;;;;;;16.60;11.55;;;;;;;10.51;100.00;98449.22;1761281;81;21015;-43
2022/11/05 06:45:38;;;;;;;17.32;12.13;;;;;;;10.52;100.00;98463.20;1761387;80;20991;-45
2022/11/05 06:48:05;;;;;;;17.75;12.13;;;;;;;10.46;100.00;98469.72;1761336;81;21018;-42
2022/11/05 06:50:30;;;;;;;18.00;12.53;;;;;;;10.50;100.00;98478.23;1761623;81;21504;-45
2022/11/05 06:53:02;;;;;;;19.98;12.65;;;;;;;10.54;100.00;98478.39;1761566;81;21030;-45
2022/11/05 06:55:30;;;;;;;20.92;14.45;;;;;;;10.58;100.00;98496.11;1761569;81;20963;-44
2022/11/05 06:57:56;;;;;;;27.15;16.80;;;;;;;10.58;100.00;98501.38;1761384;81;21508;-43
2022/11/05 07:00:23;;;;;;;30.23;17.48;;;;;;;10.57;100.00;98503.16;1761349;80;21025;-44
2022/11/05 07:02:49;;;;;;;41.23;24.57;;;;;;;10.57;100.00;98503.16;1761513;81;20963;-45
2022/11/05 07:05:16;;;;;;;41.45;24.80;;;;;;;10.55;100.00;98507.66;1761458;81;21039;-42
2022/11/05 07:07:43;;;;;;;52.88;27.93;;;;;;;10.54;100.00;98508.14;1761440;81;20982;-43
2022/11/05 07:10:13;;;;;;;52.03;28.85;;;;;;;10.47;100.00;98511.30;1761425;81;20987;-45
2022/11/05 07:12:39;;;;;;;53.70;31.02;;;;;;;10.43;100.00;98513.28;1761359;81;20995;-46
2022/11/05 07:15:06;;;;;;;62.88;31.70;;;;;;;10.33;100.00;98520.95;1761314;81;21011;-43
2022/11/05 07:17:32;;;;;;;;;;;;;;;10.28;100.00;98522.17;1764031;81;21466;-46
2022/11/05 07:19:58;;;;;;;64.37;33.28;;;;;;;10.23;100.00;98529.52;1761453;81;20440;-43
2022/11/05 07:22:23;;;;;;;74.27;35.30;;;;;;;10.22;100.00;98540.48;1761460;81;20995;-42
2022/11/05 07:24:49;;;;;;;61.33;31.23;;;;;;;10.18;100.00;98547.72;1761403;80;21085;-44
2022/11/05 07:27:16;;;;;;;67.50;31.15;;;;;;;10.12;100.00;98559.12;1761392;80;21472;-47
2022/11/05 07:29:42;;;;;;;67.72;32.85;;;;;;;10.14;100.00;98565.11;1761747;81;20990;-45
2022/11/05 07:32:07;;;;;;;72.85;32.58;;;;;;;10.11;100.00;98576.64;1761498;81;20987;-44
2022/11/05 07:34:33;;;;;;;68.22;31.93;;;;;;;9.94;100.00;98575.11;1761499;81;21019;-44
2022/11/05 07:36:59;;;;;;;72.58;34.55;;;;;;;10.04;100.00;98579.33;1761528;81;21030;-46
2022/11/05 07:39:25;;;;;;;71.05;34.48;;;;;;;9.97;100.00;98579.34;1761515;81;21038;-43
2022/11/05 07:41:53;;;;;;;80.17;37.05;;;;;;;10.02;100.00;98579.03;1761447;81;20995;-43
2022/11/05 07:44:20;;;;;;;80.22;35.40;;;;;;;10.06;100.00;98592.34;1749771;81;21060;-43
2022/11/05 07:46:45;;;;;;;72.80;35.00;;;;;;;10.08;100.00;98599.67;1748155;81;20968;-44
2022/11/05 07:49:11;;;;;;;82.00;34.78;;;;;;;10.05;100.00;98602.01;1748237;82;21039;-43
2022/11/05 07:51:37;;;;;;;80.22;35.65;;;;;;;10.06;100.00;98597.59;1748197;81;21000;-45
2022/11/05 07:54:03;;;;;;;79.22;36.10;;;;;;;10.10;100.00;98597.78;1748159;81;21027;-43
2022/11/05 07:56:29;;;;;;;76.67;36.33;;;;;;;10.17;100.00;98597.77;1748183;81;20999;-44
2022/11/05 07:58:54;;;;;;;75.25;34.15;;;;;;;10.19;100.00;98606.38;1748099;82;20999;-44
2022/11/05 08:01:20;;;;;;;74.42;35.48;;;;;;;10.20;100.00;98594.91;1748134;81;20991;-47
2022/11/05 08:03:46;;;;;;;74.05;36.50;;;;;;;10.22;100.00;98590.87;1748174;81;20995;-47
2022/11/05 08:06:12;;;;;;;77.15;35.28;;;;;;;10.25;100.00;98588.06;1748144;81;20995;-44
2022/11/05 08:08:38;;;;;;;71.12;33.28;;;;;;;10.27;100.00;98585.69;1748161;81;20983;-43
2022/11/05 08:11:05;;;;;;;66.55;31.02;;;;;;;10.32;100.00;98586.75;1748189;81;21595;-44
2022/11/05 08:13:32;;;;;;;62.00;31.20;;;;;;;10.28;100.00;98591.33;1748114;81;21461;-44
2022/11/05 08:16:00;;;;;;;58.60;28.33;;;;;;;10.25;100.00;98596.78;1748423;81;21023;-44
2022/11/05 08:18:30;;;;;;;54.65;28.12;;;;;;;10.28;100.00;98607.09;1748184;81;21030;-45
2022/11/05 08:20:55;;;;;;;63.63;31.30;;;;;;;10.29;99.70;98617.13;1748270;81;21011;-43
2022/11/05 08:23:21;;;;;;;60.92;29.82;;;;;;;10.26;99.77;98621.27;1748142;81;21488;-44
2022/11/05 08:25:46;;;;;;;59.67;29.23;;;;;;;10.28;99.63;98622.03;1748143;81;21476;-45
2022/11/05 08:28:12;;;;;;;60.20;28.70;;;;;;;10.23;100.00;98624.11;1748200;81;21055;-44
2022/11/05 08:30:39;;;;;;;60.40;30.27;;;;;;;10.17;100.00;98626.19;1748164;81;20972;-47
2022/11/05 08:33:09;;;;;;;62.35;30.50;;;;;;;10.21;99.79;98620.27;1748154;81;20996;-45
2022/11/05 08:35:36;;;;;;;58.02;29.18;;;;;;;10.19;100.00;98624.78;1748122;82;21026;-44
2022/11/05 08:38:05;;;;;;;59.38;27.67;;;;;;;10.17;100.00;98627.98;1748284;81;21469;-44
2022/11/05 08:40:34;;;;;;;54.27;27.02;;;;;;;10.21;100.00;98623.38;1748083;81;20984;-45
2022/11/05 08:43:05;;;;;;;54.42;25.95;;;;;;;10.23;99.97;98626.73;1748088;81;21055;-47
2022/11/05 08:45:31;;;;;;;53.75;23.95;;;;;;;10.23;99.83;98635.45;1748350;81;21035;-44
2022/11/05 08:48:00;;;;;;;53.90;27.85;;;;;;;10.26;99.20;98648.85;1748338;81;20996;-43
2022/11/05 08:50:26;;;;;;;63.78;31.62;;;;;;;10.30;98.78;98657.77;1748020;81;20975;-46
2022/11/05 08:52:52;;;;;;;59.80;28.52;;;;;;;10.26;98.71;98659.36;1748309;81;21023;-46
2022/11/05 08:55:18;;;;;;;43.10;24.00;;;;;;;10.24;98.82;98656.00;1748067;82;20988;-43
2022/11/05 08:57:46;;;;;;;43.98;22.65;;;;;;;10.26;97.79;98662.86;1748213;81;20996;-47
2022/11/05 09:00:14;;;;;;;40.73;20.72;;;;;;;10.21;98.13;98676.75;1748133;81;20995;-45
2022/11/05 09:02:40;;;;;;;39.08;21.05;;;;;;;10.21;98.38;98680.70;1748204;82;21031;-48
2022/11/05 09:05:07;;;;;;;41.08;21.48;;;;;;;10.14;98.53;98692.53;1748084;82;20972;-45
2022/11/05 09:07:33;;;;;;;38.85;21.80;;;;;;;10.19;98.24;98691.30;1748154;82;20972;-47
2022/11/05 09:09:59;;;;;;;42.48;19.82;;;;;;;10.23;98.11;98688.01;1748213;81;21488;-42
2022/11/05 09:12:24;;;;;;;37.75;20.25;;;;;;;10.25;97.80;98691.38;1748164;81;21515;-44
2022/11/05 09:14:50;;;;;;;38.58;19.62;;;;;;;10.23;97.60;98695.05;1748146;81;20960;-47
2022/11/05 09:17:19;;;;;;;39.25;21.10;;;;;;;10.28;97.43;98704.81;1748117;81;20992;-48
2022/11/05 09:19:46;;;;;;;36.75;20.43;;;;;;;10.23;97.58;98706.88;1748110;81;21020;-42
2022/11/05 09:22:12;;;;;;;37.90;20.32;;;;;;;10.28;97.71;98714.84;1748316;81;21568;-44
2022/11/05 09:24:42;;;;;;;42.90;20.90;;;;;;;10.28;97.46;98712.22;1748189;81;21058;-44
2022/11/05 09:27:12;;;;;;;41.25;20.57;;;;;;;10.23;97.56;98721.33;1748094;81;21002;-42
2022/11/05 09:29:39;;;;;;;43.33;21.60;;;;;;;10.25;97.52;98720.28;1748108;81;21055;-45
2022/11/05 09:32:05;;;;;;;41.88;21.65;;;;;;;10.28;97.72;98729.78;1748217;81;21424;-41
2022/11/05 09:34:31;;;;;;;40.05;20.62;;;;;;;10.30;98.65;98731.36;1748071;81;20994;-45
2022/11/05 09:36:57;;;;;;;42.50;23.65;;;;;;;10.34;97.69;98734.19;1748064;82;21038;-42
2022/11/05 09:39:23;;;;;;;39.58;21.75;;;;;;;10.33;97.88;98734.28;1748079;81;20992;-44
2022/11/05 09:41:52;;;;;;;38.75;19.23;;;;;;;10.36;97.56;98740.19;1748038;81;21486;-45
2022/11/05 09:44:43;;;;;;;35.73;20.60;;;;;;;10.31;97.69;98741.42;1756483;80;21026;-44
2022/11/05 09:47:23;;;;;;;36.93;20.23;;;;;;;10.35;97.71;98735.89;1761223;81;21007;-45
2022/11/05 09:49:51;;;;;;;37.88;19.40;;;;;;;10.38;97.29;98740.92;1760903;81;21504;-43
2022/11/05 09:52:22;;;;;;;34.60;18.80;;;;;;;10.30;97.02;98739.23;1761459;81;20995;-43
2022/11/05 09:54:49;;;;;;;36.45;19.77;;;;;;;10.32;96.74;98738.70;1760068;81;20966;-46
2022/11/05 09:57:20;;;;;;;40.48;19.90;;;;;;;10.35;96.79;98731.95;1761028;81;20983;-44
2022/11/05 09:59:50;;;;;;;33.20;19.35;;;;;;;10.36;96.46;98731.47;1760999;81;20979;-45
2022/11/05 10:02:27;;;;;;;37.98;19.90;;;;;;;10.37;96.28;98737.11;1761304;81;21034;-42
2022/11/05 10:05:00;;;;;;;31.95;19.90;;;;;;;10.35;96.21;98741.14;1761501;81;21046;-44
2022/11/05 10:07:30;;;;;;;33.45;18.32;;;;;;;10.34;95.83;98737.30;1761293;81;20987;-44
2022/11/05 10:10:06;;;;;;;36.50;20.30;;;;;;;10.36;96.25;98744.13;1761388;81;21003;-45
2022/11/05 10:12:43;;;;;;;32.70;19.30;;;;;;;10.41;96.08;98750.42;1761485;81;21034;-43
2022/11/05 10:15:22;;;;;;;38.80;20.40;;;;;;;10.46;96.10;98751.43;1759990;81;20989;-45
2022/11/05 10:17:56;;;;;;;29.92;18.87;;;;;;;10.47;95.65;98751.34;1761423;81;20983;-45
2022/11/05 10:20:33;;;;;;;30.72;19.92;;;;;;;10.40;95.51;98754.45;1758579;81;20956;-44
2022/11/05 10:23:16;;;;;;;29.77;18.82;;;;;;;10.38;95.29;98757.18;1761665;81;20983;-45
2022/11/05 10:25:53;;;;;;;31.30;19.60;;;;;;;10.35;95.41;98758.67;1761365;81;20979;-43
2022/11/05 10:28:23;;;;;;;29.55;18.30;;;;;;;10.34;95.69;98761.78;1761527;81;21030;-45
2022/11/05 10:30:54;;;;;;;35.10;18.30;;;;;;;10.33;95.71;98765.38;1761350;81;21003;-43
2022/11/05 10:33:28;;;;;;;35.40;18.82;;;;;;;10.37;95.50;98776.53;1760323;81;20998;-43
2022/11/05 10:35:59;;;;;;;28.42;17.30;;;;;;;10.33;95.36;98779.83;1745196;81;21302;-44
2022/11/05 10:38:24;;;;;;;26.48;17.75;;;;;;;10.19;96.03;98781.95;1761411;81;20991;-45
2022/11/05 10:41:21;;;;;;;25.23;17.67;;;;;;;10.17;95.72;98781.69;1761375;81;21010;-43
2022/11/05 10:43:53;;;;;;;;;;;;;;;10.22;95.43;98782.70;1761501;81;20992;-44
2022/11/05 10:46:33;;;;;;;26.73;17.70;;;;;;;10.06;96.36;98784.11;1725900;82;20102;-43
2022/11/05 10:49:24;;;;;;;25.97;18.42;;;;;;;10.07;95.58;98793.20;1753633;82;21480;-42
2022/11/05 10:51:57;;;;;;;24.07;17.20;;;;;;;10.07;95.77;98789.27;1753334;82;20979;-45
2022/11/05 10:54:29;;;;;;;25.25;17.52;;;;;;;9.99;96.73;98798.10;1753582;82;21001;-43
2022/11/05 10:56:54;;;;;;;25.95;18.07;;;;;;;10.01;96.72;98800.16;1753683;81;20979;-45
2022/11/05 10:59:27;;;;;;;23.83;17.50;;;;;;;10.05;96.04;98802.13;1753623;82;20967;-44
2022/11/05 11:02:00;;;;;;;24.32;16.32;;;;;;;10.07;96.32;98805.51;1753566;82;21033;-42
2022/11/05 11:04:28;;;;;;;20.52;14.73;;;;;;;10.07;96.07;98798.46;1753752;82;20987;-44
2022/11/05 11:06:57;;;;;;;21.48;14.33;;;;;;;10.15;96.04;98803.24;1753835;82;20989;-42
2022/11/05 11:09:31;;;;;;;20.10;14.03;;;;;;;10.08;95.83;98802.80;1753755;82;20995;-44
2022/11/05 11:12:04;;;;;;;17.52;13.60;;;;;;;10.07;95.93;98798.94;1753798;82;21457;-42
2022/11/05 11:14:31;;;;;;;18.30;13.30;;;;;;;9.99;95.84;98806.82;1752200;82;20979;-44
2022/11/05 11:17:05;;;;;;;19.10;13.28;;;;;;;9.95;96.06;98804.01;1753876;81;21038;-46
2022/11/05 11:19:34;;;;;;;18.80;12.00;;;;;;;10.02;95.77;98808.41;1735115;82;21031;-43
2022/11/05 11:22:09;;;;;;;15.98;10.70;;;;;;;10.09;95.82;98814.14;1753758;81;21591;-45
2022/11/05 11:24:45;;;;;;;16.00;11.83;;;;;;;10.04;95.28;98805.69;1753800;82;20967;-43
2022/11/05 11:27:22;;;;;;;15.05;11.00;;;;;;;10.04;95.34;98806.55;1753672;82;21437;-44
2022/11/05 11:29:57;;;;;;;13.38;10.95;;;;;;;9.99;95.19;98809.45;1753971;81;20983;-45
2022/11/05 11:32:35;;;;;;;15.85;11.65;;;;;;;9.90;95.12;98814.42;1754025;81;20987;-43
2022/11/05 11:35:02;;;;;;;14.28;10.48;;;;;;;9.90;95.57;98813.11;1753900;81;20960;-44
2022/11/05 11:37:36;;;;;;;15.65;11.15;;;;;;;9.92;95.36;98815.17;1726209;82;21365;-44
2022/11/05 11:40:25;;;;;;;16.07;10.48;;;;;;;9.91;95.14;98817.41;1753845;81;21731;-45
2022/11/05 11:42:57;;;;;;;15.63;11.60;;;;;;;9.90;95.31;98816.57;1752992;82;20983;-46
2022/11/05 11:45:34;;;;;;;13.70;10.48;;;;;;;9.81;95.58;98811.87;1753644;81;21511;-45
2022/11/05 11:48:04;;;;;;;14.15;11.35;;;;;;;9.76;95.87;98818.70;1751622;80;21022;-44
2022/11/05 11:50:42;;;;;;;16.65;11.90;;;;;;;9.78;95.77;98824.70;1753749;82;21782;-43
2022/11/05 11:53:23;;;;;;;14.13;11.38;;;;;;;9.80;95.57;98812.80;1753776;81;21019;-43
2022/11/05 11:56:15;;;;;;;14.35;11.40;;;;;;;9.76;96.12;98815.23;1753359;80;20983;-45
2022/11/05 11:58:54;;;;;;;12.18;10.20;;;;;;;9.62;96.78;98823.92;1753812;82;21050;-43
2022/11/05 12:01:37;;;;;;;13.85;9.83;;;;;;;9.74;96.43;98825.83;1749363;82;20944;-44
2022/11/05 12:04:25;;;;;;;17.30;10.98;;;;;;;9.58;96.49;98825.04;1753294;82;20978;-45
2022/11/05 12:07:23;;;;;;;13.75;10.28;;;;;;;9.69;96.84;98831.81;1753732;81;20982;-44
2022/11/05 12:10:14;;;;;;;14.13;9.23;;;;;;;9.80;95.53;98831.17;1727507;83;21055;-45
2022/11/05 12:13:00;;;;;;;34.43;22.65;;;;;;;9.60;96.30;98833.22;1727591;83;20998;-44
2022/11/05 12:15:37;;;;;;;12.93;9.98;;;;;;;9.66;96.13;98835.08;1726580;83;21024;-44
2022/11/05 12:18:11;;;;;;;11.55;8.63;;;;;;;9.66;96.42;98835.08;1727017;83;20994;-41
2022/11/05 12:21:06;;;;;;;11.80;8.70;;;;;;;9.70;96.12;98844.49;1725980;83;21041;-42
2022/11/05 12:23:46;;;;;;;12.05;8.63;;;;;;;9.60;96.40;98845.03;1727412;82;21627;-42
2022/11/05 12:26:23;;;;;;;11.57;8.70;;;;;;;9.71;96.03;98844.38;1727079;83;21018;-45
2022/11/05 12:29:00;;;;;;;13.55;9.20;;;;;;;9.71;96.08;98851.42;1727259;83;20954;-45
2022/11/05 12:31:48;;;;;;;12.75;9.08;;;;;;;9.77;96.37;98854.53;1727600;83;21026;-46
2022/11/05 12:34:55;;;;;;;14.15;9.15;;;;;;;9.87;95.85;98849.58;1727212;83;20983;-44
2022/11/05 12:37:29;;;;;;;10.72;8.98;;;;;;;9.87;95.58;98850.05;1727228;83;21087;-45
2022/11/05 12:40:47;;;;;;;11.88;8.28;;;;;;;9.90;95.55;98849.41;1727459;83;20986;-42
2022/11/05 12:43:36;;;;;;;13.28;8.68;;;;;;;9.88;95.85;98850.44;1730519;82;21539;-46
2022/11/05 12:46:34;;;;;;;13.10;8.83;;;;;;;9.87;95.58;98857.45;1753705;82;20995;-43
2022/11/05 12:49:31;;;;;;;12.33;8.40;;;;;;;9.93;95.52;98863.67;1753811;82;21502;-45
2022/11/05 12:52:26;;;;;;;13.60;8.20;;;;;;;9.87;95.59;98871.90;1753449;82;21485;-43
2022/11/05 12:55:09;;;;;;;12.28;8.00;;;;;;;9.92;95.41;98871.16;1753696;82;21472;-47
2022/11/05 12:57:39;;;;;;;10.95;7.45;;;;;;;9.93;95.39;98873.31;1753717;81;20987;-44
2022/11/05 13:00:22;;;;;;;11.73;7.90;;;;;;;9.98;94.89;98866.01;1753868;81;20999;-45
2022/11/05 13:03:11;;;;;;;18.75;8.05;;;;;;;10.01;94.94;98868.94;1753669;81;21038;-47
2022/11/05 13:05:48;;;;;;;13.43;7.97;;;;;;;9.99;94.77;98871.17;1753409;80;21030;-45
2022/11/05 13:08:23;;;;;;;11.22;7.58;;;;;;;10.08;94.69;98876.83;1753327;82;21154;-44
2022/11/05 13:11:12;;;;;;;13.68;8.93;;;;;;;10.11;94.59;98891.08;1752728;80;20998;-43
2022/11/05 13:13:43;;;;;;;11.93;7.42;;;;;;;10.06;94.46;98891.38;1753546;82;21038;-42
2022/11/05 13:16:18;;;;;;;8.13;6.50;;;;;;;10.10;94.05;98898.60;1753251;82;20995;-44
2022/11/05 13:18:49;;;;;;;10.75;7.10;;;;;;;9.97;93.57;98900.63;1752522;82;21014;-45
2022/11/05 13:21:18;;;;;;;9.53;5.95;;;;;;;10.02;93.98;98912.64;1753709;81;20991;-44
2022/11/05 13:23:56;;;;;;;21.42;7.30;;;;;;;10.04;93.61;98916.89;1753565;80;21519;-45
2022/11/05 13:26:40;;;;;;;;;;;;;;;9.99;93.36;98914.52;1756038;82;21547;-45
2022/11/05 13:29:26;;;;;;;9.40;5.62;;;;;;;9.82;92.91;98921.22;1753281;82;20110;-44
2022/11/05 13:32:02;;;;;;;7.53;5.75;;;;;;;9.94;93.36;98926.23;1753565;81;21000;-46
2022/11/05 13:34:31;;;;;;;10.48;6.00;;;;;;;9.90;93.06;98933.45;1752403;82;20992;-41
2022/11/05 13:39:56;;;;;;;7.58;4.92;;;;;;;9.93;93.08;98948.17;1753643;82;21124;-47
2022/11/05 13:42:41;;;;;;;;;;;;;;;9.92;92.61;98953.06;1755801;82;20963;-45
2022/11/05 13:45:58;;;;;;;5.70;4.08;;;;;;;9.74;92.82;98956.28;1753391;81;20111;-43
2022/11/05 13:49:04;;;;;;;8.65;5.03;;;;;;;9.78;92.90;98971.75;1753564;82;20990;-44
2022/11/05 13:51:47;;;;;;;6.95;4.15;;;;;;;9.84;92.67;98971.03;1753320;82;20982;-44
2022/11/05 13:54:44;;;;;;;9.38;4.50;;;;;;;9.84;92.67;98964.02;1753526;82;20991;-44
2022/11/05 13:57:39;;;;;;;6.65;4.03;;;;;;;9.83;91.91;98963.63;1729753;82;20972;-45
2022/11/05 14:00:23;;;;;;;6.33;3.50;;;;;;;9.91;92.17;98970.58;1753610;82;21025;-43
2022/11/05 14:02:57;;;;;;;9.58;3.10;;;;;;;9.86;91.79;98970.03;1753531;80;21046;-43
2022/11/05 14:05:28;;;;;;;4.05;3.05;;;;;;;9.74;91.01;98978.13;1753493;82;21005;-44
2022/11/05 14:07:56;;;;;;;17.95;6.85;;;;;;;9.84;91.24;98983.72;1753509;81;21040;-44
2022/11/05 14:10:39;;;;;;;20.45;8.25;;;;;;;9.77;90.76;98981.89;1753545;81;21031;-42
2022/11/05 14:13:19;;;;;;;8.88;3.35;;;;;;;9.75;91.07;98989.46;1753579;80;20984;-44
2022/11/05 14:16:04;;;;;;;10.03;3.70;;;;;;;9.68;90.84;98990.73;1751342;82;21047;-43
2022/11/05 14:18:41;;;;;;;4.62;3.08;;;;;;;9.71;90.80;98990.10;1753540;81;21019;-43
2022/11/05 14:21:30;;;;;;;5.47;3.00;;;;;;;9.65;90.42;98990.94;1726343;82;20960;-49
2022/11/05 14:23:59;;;;;;;9.45;3.27;;;;;;;9.69;90.19;98997.22;1698112;83;21581;-45
2022/11/05 14:26:28;;;;;;;6.78;3.30;;;;;;;9.72;90.31;99004.94;1698212;84;21013;-46
2022/11/05 14:29:11;;;;;;;7.55;3.52;;;;;;;9.70;90.19;99008.13;1698252;83;20985;-46
2022/11/05 14:31:54;;;;;;;10.25;2.90;;;;;;;9.68;89.98;99013.06;1698327;84;21051;-45
2022/11/05 14:34:43;;;;;;;8.25;3.35;;;;;;;9.62;89.51;99015.56;1698282;83;21082;-42
2022/11/05 14:37:29;;;;;;;5.20;2.55;;;;;;;9.69;89.58;99016.08;1697190;83;21032;-45
2022/11/05 14:40:02;;;;;;;11.38;2.77;;;;;;;9.57;89.25;99022.40;1685601;84;21514;-42
2022/11/05 14:42:30;;;;;;;5.75;3.25;;;;;;;9.56;89.53;99019.38;1698199;83;21486;-45
2022/11/05 14:45:19;;;;;;;4.17;2.85;;;;;;;9.71;89.49;99020.77;1687962;84;21068;-44
2022/11/05 14:48:02;;;;;;;5.78;2.80;;;;;;;9.52;89.67;99016.55;1670948;86;21068;-47
2022/11/05 14:50:40;;;;;;;10.00;3.17;;;;;;;9.62;89.76;99024.75;1666922;86;21117;-43
2022/11/05 14:53:25;;;;;;;5.20;2.90;;;;;;;9.70;89.66;99023.04;1670948;86;21098;-44